Time;durP1;ratioP1;P1;durP2;ratioP2;P2;SDS_P1;SDS_P2;PMS_P1;PMS_P2;Temp;Humidity;BMP_temperature;BMP_pressure;BME280_temperature;BME280_humidity;BME280_pressure;Samples;Min_cycle;Max_cycle;Signal;HPM_P1;HPM_P2
2022/06/10 00:00:58;;;;;;;5.20;1.40;;;15.40;99.90;;;;;;5050747;28;20029;-40
2022/06/10 00:03:25;;;;;;;5.95;0.95;;;15.30;99.90;;;;;;5045840;28;20104;-32
2022/06/10 00:05:53;;;;;;;7.22;1.45;;;15.40;99.90;;;;;;5039133;28;20613;-33
2022/06/10 00:08:25;;;;;;;9.80;2.05;;;15.40;99.90;;;;;;5037676;28;20038;-32
2022/06/10 00:10:52;;;;;;;9.18;1.98;;;15.40;99.90;;;;;;5040114;28;20505;-33
2022/06/10 00:13:20;;;;;;;8.20;1.73;;;15.40;99.90;;;;;;5044214;28;20042;-33
2022/06/10 00:15:47;;;;;;;4.78;1.30;;;15.40;99.90;;;;;;5041766;28;20540;-33
2022/06/10 00:18:13;;;;;;;7.80;1.85;;;15.40;99.90;;;;;;5055040;28;20037;-36
2022/06/10 00:20:40;;;;;;;8.38;1.38;;;15.30;99.90;;;;;;5051971;28;20037;-33
2022/06/10 00:23:06;;;;;;;8.60;1.30;;;15.40;99.90;;;;;;5039080;28;20030;-30
2022/06/10 00:25:31;;;;;;;7.88;1.55;;;15.40;99.90;;;;;;5046122;28;20035;-35
2022/06/10 00:27:57;;;;;;;6.05;1.65;;;15.40;99.90;;;;;;5053808;28;20437;-31
2022/06/10 00:30:28;;;;;;;11.02;2.20;;;15.40;99.90;;;;;;5035623;28;20018;-35
2022/06/10 00:32:54;;;;;;;7.38;1.80;;;15.40;99.90;;;;;;5035044;28;20485;-35
2022/06/10 00:35:20;;;;;;;8.43;1.50;;;15.40;99.90;;;;;;5045439;28;20029;-30
2022/06/10 00:37:46;;;;;;;11.98;1.90;;;15.40;99.90;;;;;;5053651;28;20029;-37
2022/06/10 00:40:20;;;;;;;14.15;2.38;;;15.40;99.90;;;;;;5041462;28;20024;-31
2022/06/10 00:42:46;;;;;;;11.07;1.60;;;15.50;99.90;;;;;;5036816;28;20513;-32
2022/06/10 00:45:49;;;;;;;9.45;1.80;;;15.50;99.90;;;;;;5034296;28;20025;-32
2022/06/10 00:49:01;;;;;;;10.63;1.67;;;15.50;99.90;;;;;;5048774;28;20777;-37
2022/06/10 00:51:42;;;;;;;9.00;1.30;;;15.40;99.90;;;;;;5019350;28;20497;-35
2022/06/10 00:54:19;;;;;;;7.72;1.48;;;15.50;99.90;;;;;;5033310;28;20041;-35
2022/06/10 00:56:47;;;;;;;;;;;15.50;99.90;;;;;;5036561;28;20417;-35
2022/06/10 00:59:20;;;;;;;13.35;2.60;;;15.40;99.90;;;;;;5033491;28;20365;-32
2022/06/10 01:01:46;;;;;;;8.73;1.77;;;15.40;99.90;;;;;;5041727;28;20032;-37
2022/06/10 01:04:12;;;;;;;12.10;1.92;;;15.50;99.90;;;;;;5050839;28;20104;-36
2022/06/10 01:06:38;;;;;;;6.05;1.85;;;15.40;99.90;;;;;;5036024;28;20112;-31
2022/06/10 01:09:05;;;;;;;11.82;1.80;;;15.40;99.90;;;;;;5034363;28;20546;-30
2022/06/10 01:11:55;;;;;;;9.85;2.03;;;15.40;99.90;;;;;;5039672;28;20036;-35
2022/06/10 01:14:31;;;;;;;8.52;1.88;;;15.40;99.90;;;;;;5050893;28;20489;-33
2022/06/10 01:17:17;;;;;;;19.67;2.33;;;15.40;99.90;;;;;;5037673;28;20072;-30
2022/06/10 01:20:07;;;;;;;10.10;1.70;;;15.40;99.90;;;;;;5033975;28;20079;-32
2022/06/10 01:23:10;;;;;;;6.20;1.83;;;15.40;99.90;;;;;;5037046;28;20042;-37
2022/06/10 01:26:13;;;;;;;10.30;2.00;;;15.40;99.90;;;;;;5044450;28;20033;-33
2022/06/10 01:29:03;;;;;;;6.82;1.20;;;15.40;99.90;;;;;;5052168;28;20481;-32
2022/06/10 01:32:04;;;;;;;6.43;1.63;;;15.40;99.90;;;;;;5043022;28;20462;-33
2022/06/10 01:34:42;;;;;;;3.40;1.42;;;15.50;99.90;;;;;;5012501;28;20501;-32
2022/06/10 01:37:22;;;;;;;9.45;1.80;;;15.50;99.90;;;;;;5035817;28;20508;-37
2022/06/10 01:40:14;;;;;;;8.02;1.40;;;15.60;99.90;;;;;;5044158;28;20029;-44
2022/06/10 01:42:47;;;;;;;6.93;1.30;;;15.60;99.90;;;;;;5051047;28;20473;-37
2022/06/10 01:45:34;;;;;;;11.43;1.60;;;15.70;99.90;;;;;;5043844;28;20097;-35
2022/06/10 01:48:05;;;;;;;1.60;0.95;;;15.70;99.90;;;;;;5036586;28;20027;-37
2022/06/10 01:50:54;;;;;;;12.55;1.83;;;15.70;99.90;;;;;;5051016;28;20472;-35
2022/06/10 01:53:30;;;;;;;5.75;1.65;;;15.80;99.90;;;;;;5045862;28;20048;-43
2022/06/10 01:56:05;;;;;;;4.57;1.40;;;15.80;99.90;;;;;;5047794;28;20044;-39
2022/06/10 01:58:39;;;;;;;6.00;1.20;;;15.80;99.90;;;;;;5046830;28;20041;-58
2022/06/10 02:01:16;;;;;;;9.55;1.70;;;15.90;99.90;;;;;;5033240;28;20037;-55
2022/06/10 02:03:56;;;;;;;15.13;1.92;;;16.00;99.90;;;;;;5033608;28;20044;-40
2022/06/10 02:06:32;;;;;;;4.47;1.50;;;16.00;99.90;;;;;;5035397;28;20036;-37
2022/06/10 02:09:01;;;;;;;10.57;2.63;;;16.00;99.90;;;;;;5042255;28;20366;-35
2022/06/10 02:11:29;;;;;;;10.18;1.45;;;16.00;99.90;;;;;;5032978;28;20500;-36
2022/06/10 02:14:00;;;;;;;6.47;1.63;;;16.00;99.90;;;;;;5033154;28;20040;-35
2022/06/10 02:16:30;;;;;;;12.57;2.22;;;16.00;99.90;;;;;;5037521;28;20033;-45
2022/06/10 02:19:22;;;;;;;8.30;1.30;;;16.00;99.90;;;;;;5039050;28;20571;-60
2022/06/10 02:22:12;;;;;;;9.90;1.88;;;16.00;99.90;;;;;;5032812;28;20128;-37
2022/06/10 02:24:46;;;;;;;11.40;2.28;;;16.00;99.90;;;;;;5040984;28;20041;-36
2022/06/10 02:27:20;;;;;;;10.13;2.10;;;16.00;99.90;;;;;;5048181;28;20465;-36
2022/06/10 02:29:57;;;;;;;5.38;1.30;;;16.00;99.90;;;;;;5033763;28;20152;-36
2022/06/10 02:32:23;;;;;;;8.88;1.75;;;16.10;99.90;;;;;;5032881;28;20473;-36
2022/06/10 02:34:49;;;;;;;4.40;1.55;;;16.10;99.90;;;;;;5032710;28;20044;-36
2022/06/10 02:37:26;;;;;;;10.85;2.17;;;16.10;99.90;;;;;;5034110;28;20033;-36
2022/06/10 02:40:03;;;;;;;4.45;2.05;;;16.10;99.90;;;;;;5047197;28;20048;-36
2022/06/10 02:42:38;;;;;;;9.35;1.60;;;16.00;99.90;;;;;;5036315;28;20039;-36
2022/06/10 02:45:35;;;;;;;6.22;2.00;;;16.10;99.90;;;;;;5042855;28;20025;-36
2022/06/10 02:48:14;;;;;;;;;;;16.10;99.90;;;;;;5053063;28;20108;-35
2022/06/10 02:50:40;;;;;;;4.47;1.52;;;16.00;99.90;;;;;;5034491;28;20361;-35
2022/06/10 02:53:07;;;;;;;4.65;1.52;;;16.10;99.90;;;;;;5035776;28;20029;-35
2022/06/10 02:55:34;;;;;;;6.30;1.63;;;16.10;99.90;;;;;;5045196;28;20084;-36
2022/06/10 03:01:12;;;;;;;;;;;16.10;99.90;;;;;;5036870;28;20699;-37
2022/06/10 03:04:17;;;;;;;7.95;1.40;;;16.10;99.90;;;;;;5042143;28;19964;-36
2022/06/10 03:07:17;;;;;;;5.40;1.52;;;16.10;99.90;;;;;;5032977;28;20175;-37
2022/06/10 03:10:01;;;;;;;8.13;1.52;;;16.10;99.90;;;;;;5044356;28;20489;-32
2022/06/10 03:12:52;;;;;;;8.32;1.90;;;16.10;99.90;;;;;;5033295;28;20049;-33
2022/06/10 03:16:01;;;;;;;14.65;1.80;;;16.10;99.90;;;;;;5033019;28;20481;-33
2022/06/10 03:19:02;;;;;;;5.53;1.65;;;16.10;99.90;;;;;;5039535;28;20130;-32
2022/06/10 03:21:52;;;;;;;9.55;1.63;;;16.10;99.90;;;;;;5035083;28;20532;-36
2022/06/10 03:24:48;;;;;;;9.77;1.90;;;16.10;99.90;;;;;;5036085;28;20021;-35
2022/06/10 03:27:42;;;;;;;10.07;1.60;;;16.10;99.90;;;;;;5035928;28;20029;-36
2022/06/10 03:30:14;;;;;;;5.43;1.50;;;16.20;99.90;;;;;;5045669;28;20038;-30
2022/06/10 03:32:46;;;;;;;9.13;1.75;;;16.20;99.90;;;;;;5036654;28;20381;-32
2022/06/10 03:35:21;;;;;;;6.65;1.70;;;16.20;99.90;;;;;;5054698;28;20493;-32
2022/06/10 03:37:48;;;;;;;7.30;1.42;;;16.20;99.90;;;;;;5056116;28;20068;-36
2022/06/10 03:40:20;;;;;;;5.43;1.50;;;16.30;99.90;;;;;;5041736;28;20033;-36
2022/06/10 03:42:52;;;;;;;8.65;2.42;;;16.20;99.90;;;;;;5034121;28;20029;-32
2022/06/10 03:45:23;;;;;;;8.15;1.42;;;16.20;99.90;;;;;;5035715;28;20374;-36
2022/06/10 03:47:49;;;;;;;5.80;1.42;;;16.20;99.90;;;;;;5038180;28;20611;-35
2022/06/10 03:50:20;;;;;;;6.68;1.52;;;16.20;99.90;;;;;;5041349;28;20049;-36
2022/06/10 03:52:46;;;;;;;4.25;1.77;;;16.20;99.90;;;;;;5035623;28;20083;-33
2022/06/10 03:55:16;;;;;;;10.05;1.70;;;16.20;99.90;;;;;;5036122;28;20033;-33
2022/06/10 03:57:43;;;;;;;1.67;1.30;;;16.20;99.90;;;;;;5042113;28;20021;-30
2022/06/10 04:00:13;;;;;;;5.40;1.35;;;16.20;99.90;;;;;;5049247;28;20021;-46
2022/06/10 04:02:39;;;;;;;10.98;1.52;;;16.20;99.90;;;;;;5049220;28;20029;-37
2022/06/10 04:05:07;;;;;;;7.45;1.60;;;16.20;99.90;;;;;;5044606;28;20048;-37
2022/06/10 04:07:33;;;;;;;7.10;1.63;;;16.20;99.90;;;;;;5039328;28;20473;-35
2022/06/10 04:09:58;;;;;;;16.00;2.63;;;16.20;99.90;;;;;;5037486;28;20025;-37
2022/06/10 04:12:25;;;;;;;7.38;1.60;;;16.20;99.90;;;;;;5036094;28;20033;-34
2022/06/10 04:14:51;;;;;;;7.72;1.80;;;16.20;99.90;;;;;;5048163;28;20037;-36
2022/06/10 04:17:17;;;;;;;8.35;2.10;;;16.10;99.90;;;;;;5034877;28;20032;-38
2022/06/10 04:19:42;;;;;;;10.32;1.70;;;16.10;99.90;;;;;;5037791;28;20033;-35
2022/06/10 04:22:08;;;;;;;8.10;2.08;;;16.10;99.90;;;;;;5051360;28;20041;-35
2022/06/10 04:24:35;;;;;;;6.70;1.13;;;16.00;99.90;;;;;;5054052;28;20068;-35
2022/06/10 04:27:02;;;;;;;5.15;1.95;;;16.00;99.90;;;;;;5036008;28;20326;-35
2022/06/10 04:29:28;;;;;;;6.78;1.63;;;16.00;99.90;;;;;;5034334;28;20037;-37
2022/06/10 04:31:53;;;;;;;4.60;1.33;;;16.00;99.90;;;;;;5034783;28;20091;-37
2022/06/10 04:34:20;;;;;;;5.57;1.42;;;16.00;99.90;;;;;;5034715;28;20041;-41
2022/06/10 04:36:46;;;;;;;5.25;1.73;;;16.00;99.90;;;;;;5049485;28;20531;-35
2022/06/10 04:39:11;;;;;;;3.20;1.30;;;16.00;99.90;;;;;;5052729;28;20037;-35
2022/06/10 04:41:38;;;;;;;12.93;2.10;;;16.00;99.90;;;;;;5035106;28;20505;-36
2022/06/10 04:44:04;;;;;;;4.00;1.23;;;16.00;99.90;;;;;;5052057;28;20036;-34
2022/06/10 04:46:36;;;;;;;6.65;2.17;;;16.00;99.90;;;;;;5039211;28;20029;-37
2022/06/10 04:49:02;;;;;;;7.43;1.73;;;16.00;99.90;;;;;;5045940;28;20032;-36
2022/06/10 04:51:27;;;;;;;6.03;2.65;;;16.10;99.90;;;;;;5052450;28;20053;-37
2022/06/10 04:53:53;;;;;;;8.32;1.15;;;16.10;99.90;;;;;;5037981;28;20029;-37
2022/06/10 04:56:19;;;;;;;6.45;1.55;;;16.10;99.90;;;;;;5046588;28;20427;-57
2022/06/10 04:58:45;;;;;;;5.05;1.25;;;16.10;99.90;;;;;;5044360;28;20033;-37
2022/06/10 05:01:11;;;;;;;5.90;1.83;;;16.20;99.90;;;;;;5054139;28;20035;-46
2022/06/10 05:03:36;;;;;;;5.80;1.85;;;16.20;99.90;;;;;;5052466;28;20036;-35
2022/06/10 05:06:03;;;;;;;5.78;1.40;;;16.30;99.90;;;;;;5045265;28;20102;-35
2022/06/10 05:08:29;;;;;;;6.43;1.67;;;16.30;99.90;;;;;;5033837;28;20037;-33
2022/06/10 05:10:54;;;;;;;3.95;1.58;;;16.20;99.90;;;;;;5048190;28;20279;-36
2022/06/10 05:13:20;;;;;;;9.30;1.60;;;16.30;99.90;;;;;;5042946;28;20056;-35
2022/06/10 05:15:48;;;;;;;6.55;1.92;;;16.30;99.90;;;;;;5039229;28;20029;-37
2022/06/10 05:18:17;;;;;;;9.00;1.83;;;16.30;99.90;;;;;;5041632;28;20061;-36
2022/06/10 05:20:43;;;;;;;5.88;1.30;;;16.40;99.90;;;;;;5047675;28;20150;-37
2022/06/10 05:23:11;;;;;;;10.30;1.37;;;16.40;99.90;;;;;;5051111;28;20052;-36
2022/06/10 05:25:37;;;;;;;4.28;1.95;;;16.50;99.90;;;;;;5042687;28;20025;-36
2022/06/10 05:28:04;;;;;;;7.55;1.75;;;16.50;99.90;;;;;;5035303;28;20473;-35
2022/06/10 05:30:32;;;;;;;5.93;1.60;;;16.60;99.90;;;;;;5032467;28;20037;-69
2022/06/10 05:33:01;;;;;;;9.00;2.40;;;16.70;99.90;;;;;;5033117;28;20108;-36
2022/06/10 05:35:28;;;;;;;7.13;1.77;;;16.70;99.90;;;;;;5031915;28;20026;-38
2022/06/10 05:37:54;;;;;;;8.97;2.17;;;16.80;99.90;;;;;;5050686;28;20029;-36
2022/06/10 05:40:22;;;;;;;6.78;1.80;;;16.90;99.90;;;;;;5052434;28;20287;-58
2022/06/10 05:42:48;;;;;;;8.30;2.20;;;16.90;99.90;;;;;;5051882;28;20528;-36
2022/06/10 05:45:17;;;;;;;9.95;2.17;;;16.90;99.90;;;;;;5038877;28;20021;-38
2022/06/10 05:47:44;;;;;;;6.75;1.63;;;16.90;99.90;;;;;;5044414;28;20021;-38
2022/06/10 05:50:22;;;;;;;8.87;1.80;;;16.90;99.90;;;;;;5041339;28;20470;-39
2022/06/10 05:52:48;;;;;;;10.73;2.38;;;16.90;99.90;;;;;;5055094;28;20030;-38
2022/06/10 05:55:14;;;;;;;10.90;2.17;;;16.90;99.90;;;;;;5043679;28;20501;-37
2022/06/10 05:57:40;;;;;;;4.75;1.60;;;16.90;99.90;;;;;;5048113;28;20531;-37
2022/06/10 06:00:13;;;;;;;7.90;2.65;;;17.00;99.90;;;;;;5051014;28;20033;-36
2022/06/10 06:02:40;;;;;;;12.27;1.80;;;17.00;99.90;;;;;;5053081;28;20032;-36
2022/06/10 06:05:07;;;;;;;6.00;1.42;;;17.00;99.90;;;;;;5044753;28;20108;-36
2022/06/10 06:07:33;;;;;;;11.32;1.55;;;16.90;99.90;;;;;;5049276;28;20025;-34
2022/06/10 06:09:59;;;;;;;9.80;2.22;;;16.90;99.90;;;;;;5033292;28;20036;-37
2022/06/10 06:12:25;;;;;;;6.55;2.13;;;17.00;99.90;;;;;;5032977;28;20030;-31
2022/06/10 06:14:50;;;;;;;3.55;1.50;;;17.00;99.90;;;;;;5046777;28;20029;-35
2022/06/10 06:17:19;;;;;;;12.48;1.83;;;17.00;99.90;;;;;;5035653;28;20029;-47
2022/06/10 06:19:44;;;;;;;11.80;2.10;;;17.00;99.90;;;;;;5032962;28;20032;-37
2022/06/10 06:22:10;;;;;;;10.80;2.05;;;17.10;99.90;;;;;;5039784;28;20049;-36
2022/06/10 06:24:37;;;;;;;10.77;1.42;;;17.10;99.90;;;;;;5033138;28;20053;-36
2022/06/10 06:27:05;;;;;;;12.10;1.80;;;17.20;99.90;;;;;;5033200;28;20612;-36
2022/06/10 06:29:31;;;;;;;10.93;1.85;;;17.20;99.90;;;;;;5048105;28;20094;-37
2022/06/10 06:31:57;;;;;;;5.97;1.17;;;17.20;99.90;;;;;;5052901;28;20546;-37
2022/06/10 06:34:24;;;;;;;6.85;1.58;;;17.30;99.90;;;;;;5052949;28;20029;-38
2022/06/10 06:36:52;;;;;;;11.70;1.73;;;17.40;99.90;;;;;;5043147;28;20052;-42
2022/06/10 06:39:20;;;;;;;6.25;1.35;;;17.50;99.90;;;;;;5033416;28;20060;-37
2022/06/10 06:41:46;;;;;;;8.38;1.45;;;17.50;99.90;;;;;;5031553;28;20394;-38
2022/06/10 06:44:13;;;;;;;6.50;1.73;;;17.60;99.90;;;;;;5041884;28;20638;-38
2022/06/10 06:46:40;;;;;;;6.55;1.70;;;17.60;99.90;;;;;;5050543;28;20021;-36
2022/06/10 06:49:09;;;;;;;8.05;1.50;;;17.60;99.90;;;;;;5046630;28;20022;-38
2022/06/10 06:51:35;;;;;;;9.77;2.03;;;17.60;99.90;;;;;;5034793;28;20037;-36
2022/06/10 06:54:20;;;;;;;12.32;2.40;;;17.50;99.90;;;;;;5031951;28;20147;-35
2022/06/10 06:56:46;;;;;;;11.52;2.15;;;17.50;99.90;;;;;;5038623;28;20546;-36
2022/06/10 06:59:12;;;;;;;3.30;1.53;;;17.50;99.90;;;;;;5044778;28;20038;-36
2022/06/10 07:01:38;;;;;;;3.83;1.73;;;17.50;99.90;;;;;;5048946;28;20498;-37
2022/06/10 07:04:04;;;;;;;8.05;1.77;;;17.50;99.90;;;;;;5043150;28;20432;-36
2022/06/10 07:06:31;;;;;;;15.55;2.10;;;17.50;99.90;;;;;;5054594;28;20420;-37
2022/06/10 07:08:57;;;;;;;12.70;2.05;;;17.50;99.90;;;;;;5053014;28;20546;-36
2022/06/10 07:11:23;;;;;;;9.48;1.25;;;17.60;99.90;;;;;;5041645;28;20037;-36
2022/06/10 07:13:48;;;;;;;10.32;2.00;;;17.60;99.90;;;;;;5040722;28;20026;-33
2022/06/10 07:16:14;;;;;;;3.08;1.27;;;17.70;99.90;;;;;;5035779;28;20116;-34
2022/06/10 07:18:40;;;;;;;2.42;1.02;;;17.80;99.90;;;;;;5044547;28;20044;-34
2022/06/10 07:21:06;;;;;;;5.53;1.35;;;17.90;99.90;;;;;;5055863;28;20025;-45
2022/06/10 07:23:31;;;;;;;5.93;1.63;;;18.00;99.90;;;;;;5056119;28;20033;-32
2022/06/10 07:25:59;;;;;;;16.70;2.35;;;18.10;99.90;;;;;;5054711;28;20036;-34
2022/06/10 07:28:25;;;;;;;9.55;2.60;;;18.20;99.90;;;;;;5049916;28;20079;-36
2022/06/10 07:30:50;;;;;;;6.95;1.70;;;18.20;99.90;;;;;;5044619;28;20025;-34
2022/06/10 07:33:16;;;;;;;6.70;1.55;;;18.30;99.90;;;;;;5045615;28;20029;-31
2022/06/10 07:35:42;;;;;;;9.40;1.90;;;18.30;99.90;;;;;;5040301;28;20065;-37
2022/06/10 07:38:09;;;;;;;6.55;1.50;;;18.40;99.90;;;;;;5040753;28;20033;-35
2022/06/10 07:43:22;;;;;;;5.32;1.60;;;18.60;99.90;;;;;;5035748;28;20311;-35
2022/06/10 07:45:48;;;;;;;11.88;2.28;;;18.70;99.90;;;;;;5041249;28;20500;-39
2022/06/10 07:48:14;;;;;;;4.18;1.85;;;18.80;99.90;;;;;;5052698;28;20111;-38
2022/06/10 07:50:42;;;;;;;3.33;1.38;;;18.90;99.90;;;;;;5048244;28;20048;-36
2022/06/10 07:53:08;;;;;;;11.27;2.08;;;19.00;99.90;;;;;;5042750;28;20525;-36
2022/06/10 07:55:35;;;;;;;14.07;2.43;;;19.30;99.90;;;;;;5035820;28;20151;-33
2022/06/10 07:58:01;;;;;;;12.68;2.20;;;19.60;99.90;;;;;;5037734;28;20036;-35
2022/06/10 08:00:27;;;;;;;6.60;2.20;;;19.80;99.90;;;;;;5035473;28;20025;-33
2022/06/10 08:02:53;;;;;;;8.75;2.15;;;20.20;99.90;;;;;;5034882;28;20030;-49
2022/06/10 08:05:19;;;;;;;4.22;2.25;;;20.40;99.90;;;;;;5036508;28;20025;-38
2022/06/10 08:07:45;;;;;;;11.05;2.20;;;20.50;99.90;;;;;;5048959;28;20052;-39
2022/06/10 08:10:27;;;;;;;8.75;2.08;;;20.60;99.90;;;;;;5050809;28;20033;-51
2022/06/10 08:12:52;;;;;;;4.07;1.58;;;20.80;99.90;;;;;;5054381;28;20038;-40
2022/06/10 08:15:21;;;;;;;5.72;1.77;;;21.00;99.90;;;;;;5035154;28;20095;-43
2022/06/10 08:17:47;;;;;;;14.00;2.35;;;21.20;99.90;;;;;;5034499;28;20536;-38
2022/06/10 08:20:23;;;;;;;4.45;2.00;;;21.40;99.90;;;;;;5040773;28;20037;-38
2022/06/10 08:22:49;;;;;;;6.30;2.00;;;21.50;99.90;;;;;;5035011;28;20045;-39
2022/06/10 08:25:15;;;;;;;6.95;1.90;;;21.60;99.90;;;;;;5043444;28;20017;-40
2022/06/10 08:27:41;;;;;;;4.97;2.13;;;21.80;99.90;;;;;;5051535;28;20022;-38
2022/06/10 08:30:13;;;;;;;3.58;1.80;;;21.90;99.90;;;;;;5046665;28;20381;-37
2022/06/10 08:32:38;;;;;;;8.20;2.65;;;22.00;99.90;;;;;;5035040;28;20029;-36
2022/06/10 08:35:06;;;;;;;6.30;2.05;;;22.20;99.90;;;;;;5033980;28;20030;-39
2022/06/10 08:37:31;;;;;;;7.68;1.70;;;22.20;99.90;;;;;;5034922;28;20025;-39
2022/06/10 08:39:57;;;;;;;5.28;2.08;;;22.10;99.90;;;;;;5034102;28;20496;-40
2022/06/10 08:42:41;;;;;;;8.35;1.85;;;22.30;99.90;;;;;;5047065;28;20442;-31
2022/06/10 08:45:34;;;;;;;7.97;1.80;;;22.40;99.90;;;;;;5049626;28;20025;-33
2022/06/10 08:48:13;;;;;;;13.05;1.80;;;22.40;99.90;;;;;;5041645;28;20025;-37
2022/06/10 08:51:04;;;;;;;10.52;1.75;;;22.30;99.90;;;;;;5034112;28;20021;-37
2022/06/10 08:53:50;;;;;;;10.77;2.00;;;22.10;99.90;;;;;;5039789;28;20037;-33
2022/06/10 08:56:28;;;;;;;5.15;1.88;;;22.00;99.90;;;;;;5041137;28;20022;-33
2022/06/10 08:59:09;;;;;;;11.25;2.67;;;22.10;99.90;;;;;;5033209;28;20026;-38
2022/06/10 09:01:48;;;;;;;2.92;1.52;;;22.10;99.90;;;;;;5051647;28;20064;-35
2022/06/10 09:04:16;;;;;;;11.32;2.53;;;22.10;99.90;;;;;;5040947;28;20487;-31
2022/06/10 09:06:51;;;;;;;5.72;1.90;;;22.10;99.90;;;;;;5040432;28;20543;-37
2022/06/10 09:09:20;;;;;;;5.53;2.30;;;22.10;99.90;;;;;;5053682;28;20021;-31
2022/06/10 09:11:53;;;;;;;13.85;2.88;;;22.00;99.90;;;;;;5047925;28;20469;-33
2022/06/10 09:14:22;;;;;;;4.63;1.65;;;21.90;99.90;;;;;;5043873;28;20367;-34
2022/06/10 09:16:58;;;;;;;14.45;2.22;;;22.10;99.90;;;;;;5032942;28;20021;-39
2022/06/10 09:19:43;;;;;;;6.72;1.92;;;22.30;99.90;;;;;;5033558;28;20473;-35
2022/06/10 09:22:23;;;;;;;8.88;1.90;;;22.30;99.90;;;;;;5033744;28;20060;-33
2022/06/10 09:25:04;;;;;;;10.77;2.72;;;22.60;99.90;;;;;;5035700;28;20025;-36
2022/06/10 09:27:38;;;;;;;9.93;2.42;;;22.90;99.90;;;;;;5032117;28;20040;-43
2022/06/10 09:30:10;;;;;;;16.08;2.50;;;23.40;99.90;;;;;;5032176;28;20033;-42
2022/06/10 09:32:45;;;;;;;7.95;2.15;;;23.60;99.90;;;;;;5033785;28;20485;-36
2022/06/10 09:35:16;;;;;;;4.95;2.45;;;23.90;99.90;;;;;;5037046;28;20029;-30
2022/06/10 09:38:12;;;;;;;6.32;2.35;;;24.10;99.90;;;;;;5033273;28;20022;-35
2022/06/10 09:40:50;;;;;;;6.72;2.35;;;24.40;99.90;;;;;;5038381;28;20363;-47
2022/06/10 09:43:18;;;;;;;;;;;24.60;99.90;;;;;;5053854;28;20502;-35
2022/06/10 09:46:29;;;;;;;6.30;1.92;;;24.70;99.90;;;;;;5053449;28;19950;-45
2022/06/10 09:49:19;;;;;;;13.05;2.55;;;25.10;99.90;;;;;;5032383;28;20487;-37
2022/06/10 09:51:53;;;;;;;7.05;2.28;;;25.20;99.90;;;;;;5033139;28;20452;-34
2022/06/10 09:54:50;;;;;;;9.40;2.20;;;24.80;99.90;;;;;;5044276;28;20032;-40
2022/06/10 09:57:35;;;;;;;8.10;2.08;;;24.40;99.90;;;;;;5031017;28;20052;-40
2022/06/10 10:00:10;;;;;;;13.20;1.63;;;24.10;99.90;;;;;;5033139;28;20040;-43
2022/06/10 10:03:09;;;;;;;4.20;1.92;;;23.80;99.90;;;;;;5033329;28;20025;-40
2022/06/10 10:06:11;;;;;;;7.20;1.85;;;24.00;99.90;;;;;;5040209;28;20059;-40
2022/06/10 10:08:57;;;;;;;8.68;1.73;;;24.00;99.90;;;;;;5053188;28;20021;-40
2022/06/10 10:11:44;;;;;;;3.80;1.47;;;23.70;99.90;;;;;;5052068;28;20528;-39
2022/06/10 10:14:48;;;;;;;3.40;1.30;;;23.40;99.90;;;;;;5043305;28;20013;-38
2022/06/10 10:17:47;;;;;;;2.35;1.52;;;23.00;99.90;;;;;;5034333;28;20174;-40
2022/06/10 10:21:02;;;;;;;7.10;1.70;;;23.20;99.90;;;;;;5017933;28;20570;-39
2022/06/10 10:23:36;;;;;;;6.00;1.75;;;24.00;99.90;;;;;;5037008;28;20053;-36
2022/06/10 10:26:13;;;;;;;3.38;1.00;;;24.80;99.90;;;;;;5033202;28;20489;-39
2022/06/10 10:28:42;;;;;;;1.45;0.93;;;25.10;99.90;;;;;;5039949;28;20389;-38
2022/06/10 10:31:17;;;;;;;2.33;1.27;;;25.40;99.90;;;;;;5047848;28;20495;-32
2022/06/10 10:33:44;;;;;;;4.93;1.35;;;25.30;99.90;;;;;;5041804;28;20041;-33
2022/06/10 10:36:21;;;;;;;2.65;1.17;;;25.20;99.90;;;;;;5044790;28;20112;-34
2022/06/10 10:38:48;;;;;;;5.88;1.35;;;24.80;99.90;;;;;;5037120;28;20117;-36
2022/06/10 10:41:38;;;;;;;3.17;1.35;;;24.30;99.90;;;;;;5047531;28;20029;-33
2022/06/10 10:44:08;;;;;;;3.83;1.20;;;24.00;99.90;;;;;;5037072;28;20075;-34
2022/06/10 10:46:38;;;;;;;5.32;1.30;;;23.60;99.90;;;;;;5036452;28;20029;-34
2022/06/10 10:49:33;;;;;;;5.38;1.45;;;23.10;99.90;;;;;;5036999;28;20025;-29
2022/06/10 10:52:05;;;;;;;6.55;1.20;;;22.80;99.90;;;;;;5036837;28;20580;-42
2022/06/10 10:54:34;;;;;;;2.47;1.05;;;22.70;99.90;;;;;;5036921;28;20534;-43
2022/06/10 10:57:01;;;;;;;2.90;1.10;;;22.60;99.90;;;;;;5045018;28;20072;-35
2022/06/10 10:59:36;;;;;;;3.60;1.00;;;22.50;99.90;;;;;;5056222;28;20048;-32
2022/06/10 11:02:31;;;;;;;3.58;1.63;;;22.60;99.90;;;;;;5041549;28;20025;-40
2022/06/10 11:05:22;;;;;;;2.08;1.27;;;22.80;99.90;;;;;;5036165;28;20030;-33
2022/06/10 11:08:10;;;;;;;5.50;1.25;;;23.20;99.90;;;;;;5039495;28;20036;-34
2022/06/10 11:10:51;;;;;;;5.60;1.50;;;23.60;99.90;;;;;;5045201;28;20076;-34
2022/06/10 11:13:44;;;;;;;5.15;1.38;;;23.90;99.90;;;;;;5036445;28;20033;-32
2022/06/10 11:16:26;;;;;;;2.20;1.00;;;24.00;99.90;;;;;;5035598;28;20029;-38
2022/06/10 11:19:13;;;;;;;1.73;0.70;;;23.90;99.90;;;;;;5038626;28;20434;-47
2022/06/10 11:21:53;;;;;;;4.03;1.00;;;23.80;99.90;;;;;;5035520;28;20045;-34
2022/06/10 11:24:24;;;;;;;2.90;1.13;;;24.00;99.90;;;;;;5036115;28;20482;-33
2022/06/10 11:26:56;;;;;;;1.65;0.70;;;24.10;99.90;;;;;;5037952;28;20523;-33
2022/06/10 11:29:23;;;;;;;6.72;0.88;;;24.00;99.90;;;;;;5038100;28;20021;-34
2022/06/10 11:32:02;;;;;;;0.70;0.70;;;24.00;99.90;;;;;;5036019;28;20500;-44
2022/06/10 11:34:38;;;;;;;1.67;1.08;;;24.00;99.90;;;;;;5035794;28;20039;-39
2022/06/10 11:37:35;;;;;;;3.33;0.95;;;24.00;99.90;;;;;;5035909;28;20489;-39
2022/06/10 11:40:11;;;;;;;;;;;24.40;99.90;;;;;;5035697;28;20045;-39
2022/06/10 11:42:49;;;;;;;2.08;0.98;;;24.80;99.90;;;;;;5034956;28;19913;-40
2022/06/10 11:45:27;;;;;;;3.92;1.10;;;24.80;99.90;;;;;;5036611;28;20424;-47
2022/06/10 11:48:14;;;;;;;1.67;0.98;;;25.00;99.90;;;;;;5035203;28;20017;-40
2022/06/10 11:50:55;;;;;;;2.22;1.20;;;24.90;99.90;;;;;;5035834;28;20053;-39
2022/06/10 11:53:43;;;;;;;9.23;1.55;;;24.60;99.90;;;;;;5035739;28;20048;-61
2022/06/10 12:02:04;;;;;;;7.85;1.65;;;24.40;99.90;;;;;;5039201;28;20098;-39
2022/06/10 12:04:40;;;;;;;7.05;1.95;;;24.50;99.90;;;;;;5035424;28;20014;-39
2022/06/10 12:07:13;;;;;;;2.35;1.58;;;24.40;99.90;;;;;;5040531;28;20036;-39
2022/06/10 12:09:51;;;;;;;8.10;1.95;;;24.20;99.90;;;;;;5035430;28;20559;-39
2022/06/10 12:12:22;;;;;;;3.35;2.50;;;24.10;99.90;;;;;;5045135;28;20030;-41
2022/06/10 12:14:54;;;;;;;4.35;2.22;;;23.90;99.90;;;;;;5054057;28;20086;-38
2022/06/10 12:17:33;;;;;;;2.03;1.85;;;23.70;99.90;;;;;;5055169;28;20027;-37
2022/06/10 12:19:59;;;;;;;6.10;2.08;;;23.50;99.90;;;;;;5055149;28;20031;-38
2022/06/10 12:22:26;;;;;;;4.70;2.05;;;23.50;99.90;;;;;;5038659;28;20037;-40
2022/06/10 12:24:52;;;;;;;4.20;2.10;;;23.60;99.90;;;;;;5036347;28;20021;-40
2022/06/10 12:27:23;;;;;;;8.65;2.88;;;23.60;99.90;;;;;;5035290;28;20488;-44
2022/06/10 12:30:04;;;;;;;4.63;2.10;;;23.50;99.90;;;;;;5016844;28;20124;-53
2022/06/10 12:32:40;;;;;;;7.18;2.50;;;23.40;99.90;;;;;;5033822;28;20037;-40
2022/06/10 12:35:25;;;;;;;8.38;2.50;;;23.60;99.90;;;;;;5036233;28;20547;-40
2022/06/10 12:37:59;;;;;;;6.40;2.67;;;23.60;99.90;;;;;;5036414;28;20404;-40
2022/06/10 12:40:28;;;;;;;6.90;2.60;;;23.60;99.90;;;;;;5036306;28;20423;-40
2022/06/10 12:43:17;;;;;;;5.18;2.35;;;23.90;99.90;;;;;;5034722;28;20025;-33
2022/06/10 12:45:50;;;;;;;4.28;2.47;;;24.60;99.90;;;;;;5032894;28;20010;-36
2022/06/10 12:48:26;;;;;;;3.10;2.08;;;24.90;99.90;;;;;;5034228;28;20038;-34
2022/06/10 12:51:31;;;;;;;3.67;1.92;;;24.60;99.90;;;;;;5034866;28;20112;-34
2022/06/10 12:54:17;;;;;;;2.80;1.85;;;24.20;99.90;;;;;;5031706;28;20033;-31
2022/06/10 12:56:43;;;;;;;1.93;1.73;;;23.90;99.90;;;;;;5033256;28;20028;-36
2022/06/10 12:59:23;;;;;;;7.47;2.40;;;24.00;99.90;;;;;;5034485;28;20021;-33
2022/06/10 13:01:50;;;;;;;2.45;2.22;;;24.10;99.90;;;;;;5034151;28;20086;-34
2022/06/10 13:04:22;;;;;;;9.20;3.83;;;24.00;99.90;;;;;;5034542;28;20021;-33
2022/06/10 13:06:57;;;;;;;2.33;2.00;;;23.90;99.90;;;;;;5034519;28;20033;-34
2022/06/10 13:09:24;;;;;;;9.63;2.28;;;23.80;99.90;;;;;;5034537;28;20017;-29
2022/06/10 13:12:08;;;;;;;;;;;23.70;99.90;;;;;;5034120;28;20026;-34
2022/06/10 13:14:33;;;;;;;5.97;1.90;;;23.60;99.90;;;;;;5033324;28;19939;-35
2022/06/10 13:16:59;;;;;;;5.80;1.80;;;23.80;99.90;;;;;;5034028;28;20126;-31
2022/06/10 13:19:36;;;;;;;3.17;2.25;;;24.30;99.90;;;;;;5033987;28;20475;-34
2022/06/10 13:22:17;;;;;;;;;;;24.50;99.90;;;;;;5033656;28;20132;-36
2022/06/10 13:24:43;;;;;;;6.85;2.40;;;25.00;99.90;;;;;;5034145;28;19905;-34
2022/06/10 13:27:46;;;;;;;6.53;1.80;;;25.30;99.90;;;;;;5033786;28;20021;-35
2022/06/10 13:30:13;;;;;;;3.60;1.95;;;25.30;99.90;;;;;;5035129;28;20406;-33
2022/06/10 13:32:44;;;;;;;2.45;1.80;;;25.10;99.90;;;;;;5033820;28;20493;-33